Time;durP1;ratioP1;P1;durP2;ratioP2;P2;SDS_P1;SDS_P2;PMS_P1;PMS_P2;Temp;Humidity;BMP_temperature;BMP_pressure;BME280_temperature;BME280_humidity;BME280_pressure;Samples;Min_cycle;Max_cycle;Signal;HPM_P1;HPM_P2
2023/04/25 00:01:39;;;;;;;3.40;1.87;;;7.20;99.90;7.10;99702.00;;;;4937532;28;97996;-68
2023/04/25 00:04:07;;;;;;;3.03;1.60;;;7.10;99.90;7.10;99694.00;;;;4937611;28;87794;-68
2023/04/25 00:06:36;;;;;;;3.10;2.20;;;7.20;99.90;7.10;99693.00;;;;4934354;28;87953;-68
2023/04/25 00:09:03;;;;;;;1.60;1.47;;;7.20;99.90;7.10;99694.00;;;;4933501;28;87738;-69
2023/04/25 00:11:30;;;;;;;5.30;2.03;;;7.20;99.90;7.10;99692.00;;;;4933728;28;88126;-68
2023/04/25 00:13:57;;;;;;;3.03;2.00;;;7.70;99.90;7.20;99692.00;;;;4933325;28;87808;-68
2023/04/25 00:16:23;;;;;;;1.90;1.50;;;7.20;99.90;7.20;99693.00;;;;4931922;28;87791;-67
2023/04/25 00:18:51;;;;;;;2.27;1.67;;;7.70;99.90;7.20;99698.00;;;;4934665;28;87791;-68
2023/04/25 00:21:19;;;;;;;1.63;1.53;;;7.30;99.90;7.30;99687.00;;;;4931304;28;90492;-69
2023/04/25 00:23:45;;;;;;;1.40;1.20;;;7.40;99.90;7.30;99685.00;;;;4934665;28;88056;-67
2023/04/25 00:26:11;;;;;;;1.70;1.60;;;7.50;99.90;7.40;99686.00;;;;4936943;28;88016;-67
2023/04/25 00:28:37;;;;;;;1.50;1.40;;;7.80;99.90;7.40;99684.00;;;;4933603;28;88147;-67
2023/04/25 00:31:03;;;;;;;4.57;1.93;;;7.60;99.90;7.50;99683.00;;;;4936536;28;109419;-67
2023/04/25 00:33:29;;;;;;;4.33;1.80;;;7.50;99.90;7.50;99685.00;;;;4932061;28;111225;-68
2023/04/25 00:35:55;;;;;;;4.53;1.80;;;7.60;99.90;7.50;99684.00;;;;4932922;28;87911;-68
2023/04/25 00:38:21;;;;;;;3.03;1.83;;;7.60;99.90;7.60;99693.00;;;;4934237;28;91100;-66
2023/04/25 00:40:47;;;;;;;2.10;1.10;;;7.70;99.90;7.60;99680.00;;;;4936561;28;89154;-67
2023/04/25 00:43:13;;;;;;;1.60;1.50;;;7.70;99.90;7.60;99676.00;;;;4936479;28;88838;-68
2023/04/25 00:45:40;;;;;;;5.93;1.80;;;7.70;99.90;7.70;99686.00;;;;4934625;28;88955;-67
2023/04/25 00:48:06;;;;;;;2.27;1.57;;;7.70;99.90;7.70;99684.00;;;;4931629;28;88838;-68
2023/04/25 00:50:33;;;;;;;1.63;1.53;;;7.80;99.90;7.70;99684.00;;;;4931723;28;107519;-67
2023/04/25 00:53:00;;;;;;;1.97;1.43;;;7.90;99.90;7.70;99692.00;;;;4927573;28;88526;-66
2023/04/25 00:55:26;;;;;;;4.73;1.23;;;7.80;99.90;7.70;99674.00;;;;4934859;28;91071;-67
2023/04/25 00:57:52;;;;;;;1.10;1.00;;;7.80;99.90;7.80;99680.00;;;;4935180;28;101072;-66
2023/04/25 01:00:18;;;;;;;1.97;1.80;;;7.80;99.90;7.80;99671.00;;;;4935966;28;116955;-67
2023/04/25 01:02:45;;;;;;;4.90;1.60;;;7.90;99.90;7.80;99683.00;;;;4934034;28;109240;-67
2023/04/25 01:05:11;;;;;;;2.47;1.93;;;7.90;99.90;7.80;99666.00;;;;4935604;28;110448;-67
2023/04/25 01:07:38;;;;;;;6.37;2.00;;;7.90;99.90;7.80;99668.00;;;;4936493;28;88195;-68
2023/04/25 01:10:06;;;;;;;2.63;1.33;;;7.90;99.90;7.80;99671.00;;;;4930770;28;119030;-66
2023/04/25 01:12:32;;;;;;;2.03;1.40;;;7.90;99.90;7.70;99667.00;;;;4926485;28;88756;-67
2023/04/25 01:14:57;;;;;;;1.50;1.30;;;7.80;99.90;7.70;99675.00;;;;4930629;28;108650;-67
2023/04/25 01:17:23;;;;;;;2.40;1.20;;;7.80;99.90;7.70;99675.00;;;;4935048;28;87857;-68
2023/04/25 01:20:12;;;;;;;3.10;2.10;;;7.80;99.90;7.60;99666.00;;;;4936820;28;88914;-67
2023/04/25 01:22:38;;;;;;;2.70;1.20;;;7.80;99.90;7.60;99667.00;;;;4934335;28;87883;-67
2023/04/25 01:25:04;;;;;;;2.40;2.20;;;7.70;99.90;7.60;99663.00;;;;4933137;28;110191;-69
2023/04/25 01:27:30;;;;;;;1.87;1.53;;;7.70;99.90;7.50;99667.00;;;;4935234;28;87195;-68
2023/04/25 01:29:56;;;;;;;3.03;1.57;;;7.60;99.90;7.50;99672.00;;;;4930116;28;117861;-68
2023/04/25 01:32:23;;;;;;;2.07;1.77;;;7.60;99.90;7.50;99674.00;;;;4932401;28;116830;-67
2023/04/25 01:34:49;;;;;;;1.43;1.30;;;7.60;99.90;7.40;99671.00;;;;4933221;28;108407;-67
2023/04/25 01:37:17;;;;;;;1.60;1.50;;;7.50;99.90;7.40;99669.00;;;;4931711;28;108359;-68
2023/04/25 01:39:43;;;;;;;2.10;1.57;;;7.50;99.90;7.40;99676.00;;;;4934233;28;88082;-70
2023/04/25 01:42:09;;;;;;;3.20;1.97;;;8.40;99.90;7.40;99666.00;;;;4935813;28;88464;-68
2023/04/25 01:44:34;;;;;;;2.33;1.57;;;7.50;99.90;7.40;99672.00;;;;4932216;28;109283;-68
2023/04/25 01:47:00;;;;;;;2.00;1.70;;;7.50;99.90;7.40;99665.00;;;;4930888;28;108897;-68
2023/04/25 01:49:26;;;;;;;2.10;1.20;;;7.70;99.90;7.50;99671.00;;;;4930740;28;88048;-68
2023/04/25 01:51:52;;;;;;;8.13;2.00;;;7.60;99.90;7.60;99665.00;;;;4933557;28;88927;-68
2023/04/25 01:54:18;;;;;;;3.27;1.30;;;7.60;99.90;7.60;99664.00;;;;4931053;28;102193;-68
2023/04/25 01:56:51;;;;;;;2.47;1.80;;;7.70;99.90;7.60;99668.00;;;;4929512;28;108411;-67
2023/04/25 01:59:20;;;;;;;3.00;1.97;;;7.70;99.90;7.70;99673.00;;;;4932373;28;88938;-68
2023/04/25 02:01:45;;;;;;;2.63;1.60;;;7.70;99.90;7.70;99676.00;;;;4934304;28;88479;-68
2023/04/25 02:04:11;;;;;;;1.77;1.30;;;7.80;99.90;7.80;99677.00;;;;4928633;28;110973;-68
2023/04/25 02:06:36;;;;;;;3.90;1.37;;;7.80;99.90;7.80;99677.00;;;;4933409;28;108195;-69
2023/04/25 02:09:02;;;;;;;4.40;1.90;;;7.80;99.90;7.80;99676.00;;;;4932467;28;117353;-68
2023/04/25 02:11:28;;;;;;;2.13;1.40;;;7.90;99.90;7.90;99669.00;;;;4933611;28;88021;-68
2023/04/25 02:13:53;;;;;;;2.50;2.10;;;8.10;99.90;7.80;99669.00;;;;4928512;28;109264;-68
2023/04/25 02:16:19;;;;;;;2.73;1.60;;;7.90;99.90;7.90;99670.00;;;;4933678;28;108351;-68
2023/04/25 02:18:45;;;;;;;4.87;2.40;;;8.00;99.90;7.80;99662.00;;;;4935573;28;118317;-68
2023/04/25 02:21:11;;;;;;;1.60;1.30;;;8.00;99.90;7.70;99669.00;;;;4925569;28;90240;-68
2023/04/25 02:23:37;;;;;;;1.93;1.73;;;7.90;99.90;7.70;99678.00;;;;4934174;28;89507;-69
2023/04/25 02:26:03;;;;;;;2.40;1.40;;;8.10;99.90;7.70;99676.00;;;;4928547;28;88034;-68
2023/04/25 02:28:29;;;;;;;3.10;1.77;;;7.80;99.90;7.70;99680.00;;;;4931711;28;106547;-68
2023/04/25 02:30:54;;;;;;;1.87;1.77;;;7.80;99.90;7.70;99671.00;;;;4932128;28;88120;-69
2023/04/25 02:33:20;;;;;;;2.27;2.03;;;8.00;99.90;7.70;99673.00;;;;4933367;28;107360;-69
2023/04/25 02:35:46;;;;;;;2.23;1.93;;;7.80;99.90;7.70;99672.00;;;;4933174;28;88135;-68
2023/04/25 02:38:12;;;;;;;5.37;1.80;;;7.80;99.90;7.70;99674.00;;;;4931164;28;108204;-69
2023/04/25 02:40:38;;;;;;;2.83;2.03;;;7.80;99.90;7.70;99666.00;;;;4932382;28;88854;-68
2023/04/25 02:43:03;;;;;;;2.20;1.50;;;7.80;99.90;7.70;99666.00;;;;4932829;28;110245;-68
2023/04/25 02:45:29;;;;;;;1.40;1.30;;;7.80;99.90;7.70;99668.00;;;;4930763;28;98700;-67
2023/04/25 02:47:55;;;;;;;4.57;2.30;;;7.90;99.90;7.70;99658.00;;;;4931104;28;118188;-68
2023/04/25 02:50:20;;;;;;;5.40;1.67;;;7.80;99.90;7.60;99662.00;;;;4929983;28;119028;-69
2023/04/25 02:52:46;;;;;;;2.27;1.53;;;7.70;99.90;7.60;99665.00;;;;4933223;28;87913;-68
2023/04/25 02:55:13;;;;;;;2.10;1.63;;;7.90;99.90;7.60;99649.00;;;;4931345;28;108908;-68
2023/04/25 02:57:39;;;;;;;3.37;1.53;;;7.70;99.90;7.50;99656.00;;;;4933841;28;88402;-69
2023/04/25 03:00:05;;;;;;;3.73;2.13;;;8.00;99.90;7.50;99649.00;;;;4934993;28;105883;-69
2023/04/25 03:02:31;;;;;;;2.73;1.97;;;7.60;99.90;7.50;99654.00;;;;4931720;28;87841;-69
2023/04/25 03:04:57;;;;;;;1.93;1.60;;;7.60;99.90;7.40;99649.00;;;;4925665;28;108290;-69
2023/04/25 03:07:23;;;;;;;5.20;2.33;;;7.60;99.90;7.40;99647.00;;;;4935002;28;88101;-68
2023/04/25 03:09:49;;;;;;;1.53;1.27;;;7.50;99.90;7.30;99655.00;;;;4935310;28;116863;-67
2023/04/25 03:12:27;;;;;;;1.93;1.77;;;7.50;99.90;7.30;99651.00;;;;4934042;28;89020;-68
2023/04/25 03:14:52;;;;;;;3.07;1.90;;;7.50;99.90;7.20;99654.00;;;;4930668;28;108925;-69
2023/04/25 03:17:18;;;;;;;2.20;2.00;;;7.40;99.90;7.20;99646.00;;;;4934952;28;117376;-69
2023/04/25 03:19:43;;;;;;;2.20;1.67;;;7.50;99.90;7.10;99648.00;;;;4934773;28;117721;-67
2023/04/25 03:22:09;;;;;;;2.97;1.50;;;7.30;99.90;7.00;99641.00;;;;4935565;28;110256;-67
2023/04/25 03:24:36;;;;;;;2.27;1.80;;;7.20;99.90;7.00;99647.00;;;;4932941;28;88450;-68
2023/04/25 03:27:02;;;;;;;1.80;1.50;;;7.10;99.90;6.90;99646.00;;;;4934558;28;89561;-68
2023/04/25 03:29:28;;;;;;;2.17;1.70;;;7.10;99.90;6.90;99649.00;;;;4934016;28;116700;-67
2023/04/25 03:31:54;;;;;;;4.47;1.90;;;7.50;99.90;6.80;99655.00;;;;4936702;28;88276;-69
2023/04/25 03:34:21;;;;;;;2.97;2.23;;;6.90;99.90;6.70;99647.00;;;;4933104;28;108912;-68
2023/04/25 03:36:47;;;;;;;3.37;2.23;;;7.00;99.90;6.70;99661.00;;;;4931766;28;90009;-68
2023/04/25 03:39:12;;;;;;;2.43;2.23;;;6.90;99.90;6.60;99648.00;;;;4931802;28;94104;-68
2023/04/25 03:41:38;;;;;;;4.03;2.20;;;6.80;99.90;6.60;99654.00;;;;4930729;28;110855;-68
2023/04/25 03:44:04;;;;;;;2.43;1.93;;;7.00;99.90;6.50;99641.00;;;;4934488;28;107785;-68
2023/04/25 03:46:30;;;;;;;3.83;2.03;;;6.60;99.90;6.50;99643.00;;;;4934082;28;88859;-67
2023/04/25 03:48:55;;;;;;;3.00;2.53;;;6.60;99.90;6.40;99644.00;;;;4932832;28;116695;-68
2023/04/25 03:51:21;;;;;;;4.80;2.37;;;6.60;99.90;6.40;99637.00;;;;4933577;28;91346;-67
2023/04/25 03:53:47;;;;;;;6.17;2.33;;;6.60;99.90;6.40;99648.00;;;;4936834;28;109544;-67
2023/04/25 03:56:13;;;;;;;3.10;2.10;;;6.40;99.90;6.30;99653.00;;;;4935469;28;90830;-69
2023/04/25 03:58:39;;;;;;;2.23;2.03;;;6.80;99.90;6.20;99655.00;;;;4934298;28;116433;-67
2023/04/25 04:01:07;;;;;;;1.20;1.20;;;6.80;99.90;6.20;99650.00;;;;4931575;28;105034;-67
2023/04/25 04:03:35;;;;;;;4.47;2.27;;;6.40;99.90;6.10;99649.00;;;;4931838;28;87970;-67
2023/04/25 04:06:03;;;;;;;2.83;2.30;;;6.30;99.90;6.10;99650.00;;;;4934184;28;89283;-69
2023/04/25 04:08:29;;;;;;;3.43;2.43;;;6.90;99.90;6.10;99659.00;;;;4934882;28;87810;-67
2023/04/25 04:10:56;;;;;;;3.73;2.70;;;6.20;99.90;6.00;99670.00;;;;4931614;28;87971;-67
2023/04/25 04:13:22;;;;;;;2.50;2.30;;;6.20;99.90;6.00;99674.00;;;;4933308;28;92308;-67
2023/04/25 04:15:48;;;;;;;4.40;2.83;;;6.70;99.90;6.00;99666.00;;;;4932727;28;118711;-67
2023/04/25 04:18:13;;;;;;;3.07;2.53;;;6.10;99.90;6.00;99669.00;;;;4935368;28;119319;-68
2023/04/25 04:20:39;;;;;;;3.37;2.53;;;6.10;99.90;5.90;99671.00;;;;4932852;28;87951;-67
2023/04/25 04:23:05;;;;;;;2.37;1.97;;;6.00;99.90;5.90;99663.00;;;;4932993;28;107987;-68
2023/04/25 04:25:31;;;;;;;2.97;2.67;;;6.10;99.90;5.90;99670.00;;;;4934980;28;89041;-68
2023/04/25 04:27:57;;;;;;;2.80;2.47;;;6.00;99.90;5.90;99669.00;;;;4934513;28;119079;-68
2023/04/25 04:30:24;;;;;;;2.47;1.57;;;6.40;99.90;5.90;99672.00;;;;4932455;28;87996;-68
2023/04/25 04:32:51;;;;;;;1.90;1.70;;;6.10;99.90;5.90;99673.00;;;;4932440;28;88416;-68
2023/04/25 04:35:17;;;;;;;3.47;2.07;;;6.10;99.90;5.90;99670.00;;;;4931306;28;88289;-68
2023/04/25 04:37:45;;;;;;;2.90;2.37;;;6.10;99.90;5.90;99679.00;;;;4928018;28;113064;-69
2023/04/25 04:40:11;;;;;;;3.57;2.07;;;6.60;99.90;6.00;99671.00;;;;4928263;28;87966;-68
2023/04/25 04:42:37;;;;;;;3.20;1.90;;;6.10;99.90;6.00;99666.00;;;;4927372;28;87105;-69
2023/04/25 04:45:03;;;;;;;2.37;1.83;;;6.10;99.90;6.10;99672.00;;;;4930186;28;88849;-68
2023/04/25 04:47:33;;;;;;;2.97;2.40;;;6.20;99.90;6.10;99677.00;;;;4929608;28;88744;-68
2023/04/25 04:49:59;;;;;;;2.20;1.50;;;6.70;99.90;6.20;99676.00;;;;4933868;28;88803;-68
2023/04/25 04:52:25;;;;;;;2.73;1.60;;;6.30;99.90;6.20;99678.00;;;;4928613;28;98425;-69
2023/04/25 04:54:50;;;;;;;3.70;2.13;;;6.40;99.90;6.30;99675.00;;;;4927253;28;117145;-67
2023/04/25 04:57:16;;;;;;;2.87;2.63;;;6.80;99.90;6.40;99678.00;;;;4929415;28;113236;-68
2023/04/25 04:59:42;;;;;;;2.57;1.70;;;6.90;99.90;6.60;99687.00;;;;4924918;28;88048;-68
2023/04/25 05:02:08;;;;;;;5.23;2.33;;;6.90;99.90;6.70;99686.00;;;;4931230;28;108086;-68
2023/04/25 05:04:33;;;;;;;2.07;1.80;;;6.70;99.90;6.90;99686.00;;;;4931816;28;88862;-69
2023/04/25 05:06:59;;;;;;;2.30;1.87;;;6.90;99.90;7.00;99686.00;;;;4935520;28;117516;-68
2023/04/25 05:09:25;;;;;;;2.63;1.73;;;7.10;99.90;7.10;99681.00;;;;4930698;28;109753;-68
2023/04/25 05:11:51;;;;;;;1.93;1.77;;;7.20;99.90;7.30;99689.00;;;;4931129;28;88098;-68
2023/04/25 05:14:17;;;;;;;3.80;2.07;;;7.30;99.90;7.40;99685.00;;;;4929650;28;89697;-68
2023/04/25 05:16:43;;;;;;;2.77;1.97;;;7.40;99.90;7.60;99691.00;;;;4932109;28;89457;-68
2023/04/25 05:19:09;;;;;;;4.33;2.53;;;7.60;99.90;7.70;99687.00;;;;4930071;28;111779;-68
2023/04/25 05:21:35;;;;;;;3.43;2.10;;;7.70;99.90;7.90;99685.00;;;;4931000;28;87825;-67
2023/04/25 05:24:01;;;;;;;2.50;1.83;;;7.90;99.90;8.00;99693.00;;;;4931248;28;118140;-69
2023/04/25 05:26:30;;;;;;;4.70;2.23;;;8.00;99.90;8.10;99691.00;;;;4932650;28;109261;-68
2023/04/25 05:28:57;;;;;;;2.40;1.77;;;8.10;99.90;8.20;99688.00;;;;4937024;28;87920;-67
2023/04/25 05:31:23;;;;;;;3.70;2.60;;;8.30;99.90;8.30;99690.00;;;;4932950;28;87141;-67
2023/04/25 05:33:49;;;;;;;2.43;2.23;;;8.30;99.90;8.40;99698.00;;;;4932168;28;109397;-68
2023/04/25 05:36:14;;;;;;;2.33;1.70;;;8.50;99.90;8.60;99694.00;;;;4932863;28;88051;-67
2023/04/25 05:38:40;;;;;;;1.93;1.60;;;8.60;99.90;8.70;99695.00;;;;4933230;28;110108;-67
2023/04/25 05:41:05;;;;;;;1.20;1.17;;;8.70;99.90;8.80;99703.00;;;;4934319;28;107107;-68
2023/04/25 05:43:31;;;;;;;2.43;1.97;;;8.80;99.90;9.00;99703.00;;;;4934599;28;109438;-67
2023/04/25 05:45:57;;;;;;;1.93;1.77;;;8.90;99.90;9.10;99705.00;;;;4930384;28;116874;-68
2023/04/25 05:48:22;;;;;;;4.47;2.37;;;9.10;99.90;9.30;99702.00;;;;4932789;28;109738;-68
2023/04/25 05:50:48;;;;;;;2.30;1.93;;;9.30;99.90;9.40;99699.00;;;;4933053;28;107711;-68
2023/04/25 05:53:14;;;;;;;2.50;1.37;;;9.40;99.90;9.50;99697.00;;;;4936950;28;88893;-68
2023/04/25 05:55:39;;;;;;;2.03;1.70;;;9.50;99.90;9.60;99705.00;;;;4926811;28;118509;-67
2023/04/25 05:58:06;;;;;;;3.40;1.40;;;9.60;99.90;9.70;99704.00;;;;4929478;28;87785;-70
2023/04/25 06:00:32;;;;;;;2.07;1.10;;;9.70;99.90;9.80;99708.00;;;;4936314;28;87928;-70
2023/04/25 06:02:58;;;;;;;2.00;1.87;;;9.80;99.90;9.90;99705.00;;;;4931538;28;89023;-69
2023/04/25 06:05:24;;;;;;;3.90;1.80;;;9.90;99.90;10.00;99697.00;;;;4935839;28;118146;-68
2023/04/25 06:07:50;;;;;;;1.50;1.40;;;10.00;99.90;10.10;99695.00;;;;4926406;28;87807;-69
2023/04/25 06:10:16;;;;;;;3.77;1.40;;;10.10;99.90;10.20;99690.00;;;;4932352;28;87775;-68
2023/04/25 06:12:41;;;;;;;2.67;1.53;;;10.20;99.90;10.20;99692.00;;;;4930066;28;117195;-69
2023/04/25 06:15:07;;;;;;;2.30;2.00;;;10.30;99.90;10.30;99694.00;;;;4927270;28;117562;-70
2023/04/25 06:17:33;;;;;;;1.53;1.20;;;10.30;99.90;10.40;99701.00;;;;4933275;28;92843;-69
2023/04/25 06:19:59;;;;;;;2.10;1.67;;;10.40;99.90;10.60;99705.00;;;;4933143;28;87011;-69
2023/04/25 06:22:25;;;;;;;1.83;1.70;;;10.60;99.90;10.70;99698.00;;;;4933270;28;111003;-68
2023/04/25 06:24:50;;;;;;;2.43;1.40;;;10.70;99.90;10.80;99707.00;;;;4929733;28;88419;-69
2023/04/25 06:27:16;;;;;;;1.77;1.67;;;10.80;99.90;10.80;99701.00;;;;4933160;28;111735;-69
2023/04/25 06:29:42;;;;;;;1.60;1.40;;;10.90;99.70;10.90;99701.00;;;;4936117;28;88002;-69
2023/04/25 06:32:08;;;;;;;2.87;2.47;;;11.00;99.30;10.90;99712.00;;;;4933935;28;118614;-69
2023/04/25 06:34:33;;;;;;;2.13;1.60;;;11.00;99.10;11.10;99708.00;;;;4932341;28;88026;-69
2023/04/25 06:36:59;;;;;;;1.27;1.13;;;11.10;98.20;11.10;99702.00;;;;4935171;28;103992;-68
2023/04/25 06:39:25;;;;;;;1.13;1.13;;;11.10;98.00;11.20;99705.00;;;;4934293;28;87852;-69
2023/04/25 06:41:50;;;;;;;1.63;1.53;;;11.20;98.00;11.30;99706.00;;;;4931492;28;88915;-69
2023/04/25 06:44:16;;;;;;;2.33;2.00;;;11.40;96.60;11.40;99705.00;;;;4932433;28;110330;-69
2023/04/25 06:46:42;;;;;;;1.30;1.20;;;11.40;96.80;11.50;99710.00;;;;4936902;28;108548;-69
2023/04/25 06:49:08;;;;;;;3.13;1.60;;;11.50;97.00;11.70;99721.00;;;;4937722;28;87921;-69
2023/04/25 06:51:40;;;;;;;1.50;1.40;;;11.70;96.80;11.80;99719.00;;;;4932541;28;118596;-68
2023/04/25 06:54:06;;;;;;;2.60;1.67;;;11.80;95.30;11.80;99710.00;;;;4933468;28;109086;-69
2023/04/25 06:56:32;;;;;;;1.73;1.00;;;11.90;94.70;11.90;99710.00;;;;4933203;28;103949;-70
2023/04/25 06:58:58;;;;;;;1.70;1.30;;;11.90;94.50;12.00;99717.00;;;;4933507;28;108530;-69
2023/04/25 07:01:23;;;;;;;1.13;1.03;;;12.00;94.50;12.20;99717.00;;;;4930675;28;88098;-68
2023/04/25 07:03:49;;;;;;;3.27;1.83;;;12.20;94.50;12.30;99711.00;;;;4937076;28;117731;-69
2023/04/25 07:06:18;;;;;;;4.83;1.60;;;12.30;94.00;12.50;99714.00;;;;4934533;28;87884;-67
2023/04/25 07:08:43;;;;;;;2.17;1.80;;;12.50;93.60;12.70;99705.00;;;;4931086;28;104724;-68
2023/04/25 07:11:09;;;;;;;2.77;1.43;;;12.70;92.70;12.80;99717.00;;;;4932222;28;117015;-67
2023/04/25 07:13:35;;;;;;;2.27;1.43;;;12.80;92.10;12.90;99713.00;;;;4936454;28;117352;-67
2023/04/25 07:16:00;;;;;;;1.10;1.00;;;12.90;91.50;13.10;99722.00;;;;4936735;28;100851;-68
2023/04/25 07:18:26;;;;;;;2.40;1.20;;;13.10;90.90;13.20;99728.00;;;;4929821;28;108100;-67
2023/04/25 07:20:52;;;;;;;0.90;0.80;;;13.20;90.90;13.30;99725.00;;;;4929900;28;116157;-69
2023/04/25 07:23:17;;;;;;;3.93;2.03;;;13.40;90.60;13.40;99729.00;;;;4933316;28;117535;-67
2023/04/25 07:25:43;;;;;;;4.40;0.83;;;13.40;90.20;13.60;99721.00;;;;4935798;28;111268;-69
2023/04/25 07:28:09;;;;;;;2.67;1.60;;;13.60;88.30;13.60;99721.00;;;;4935712;28;87729;-68
2023/04/25 07:30:34;;;;;;;1.53;1.10;;;13.70;84.90;13.50;99728.00;;;;4932589;28;117228;-67
2023/04/25 07:33:00;;;;;;;1.27;1.17;;;13.60;86.10;13.60;99728.00;;;;4935896;28;88018;-68
2023/04/25 07:35:26;;;;;;;1.93;1.40;;;13.60;84.80;13.70;99734.00;;;;4936305;28;88738;-68
2023/04/25 07:37:52;;;;;;;4.37;1.37;;;13.70;84.60;14.00;99739.00;;;;4930694;28;93084;-68
2023/04/25 07:40:18;;;;;;;1.38;1.25;;;13.90;85.00;14.30;99738.00;;;;4934359;28;90347;-68
2023/04/25 07:42:43;;;;;;;2.07;1.27;;;14.20;84.00;14.20;99743.00;;;;4935033;28;117437;-66
2023/04/25 07:45:10;;;;;;;0.73;0.73;;;14.20;80.70;14.10;99740.00;;;;4936029;28;110831;-69
2023/04/25 07:47:36;;;;;;;1.83;1.07;;;14.20;80.20;14.20;99746.00;;;;4933379;28;87897;-68
2023/04/25 07:50:03;;;;;;;1.83;1.17;;;14.30;80.10;14.30;99746.00;;;;4935246;28;88343;-68
2023/04/25 07:52:28;;;;;;;2.37;1.07;;;14.40;77.40;14.30;99751.00;;;;4933046;28;87673;-68
2023/04/25 07:54:54;;;;;;;2.80;1.25;;;14.40;76.50;14.30;99746.00;;;;4933318;28;110475;-68
2023/04/25 07:57:20;;;;;;;0.97;0.90;;;14.40;74.50;14.20;99742.00;;;;4931759;28;87322;-68
2023/04/25 07:59:46;;;;;;;1.10;0.70;;;14.40;74.90;14.10;99745.00;;;;4933288;28;88929;-68
2023/04/25 08:02:11;;;;;;;1.67;1.03;;;14.20;75.30;14.30;99746.00;;;;4935149;28;117574;-68
2023/04/25 08:04:37;;;;;;;1.67;1.00;;;14.40;76.20;14.50;99741.00;;;;4931243;28;110314;-68
2023/04/25 08:07:03;;;;;;;1.07;0.83;;;14.40;76.20;14.60;99754.00;;;;4932657;28;108810;-68
2023/04/25 08:09:33;;;;;;;1.60;0.95;;;14.60;76.30;14.70;99757.00;;;;4931481;28;118563;-68
2023/04/25 08:12:00;;;;;;;2.75;1.33;;;14.70;75.40;14.60;99759.00;;;;4935213;28;87927;-68
2023/04/25 08:14:26;;;;;;;1.30;0.82;;;14.70;74.70;14.50;99760.00;;;;4934629;28;87880;-68
2023/04/25 08:16:51;;;;;;;3.33;1.15;;;14.60;74.10;14.40;99763.00;;;;4934771;28;88090;-68
2023/04/25 08:19:17;;;;;;;1.20;1.10;;;14.50;74.50;14.40;99764.00;;;;4934598;28;117725;-67
2023/04/25 08:21:42;;;;;;;1.35;0.95;;;14.50;74.40;14.60;99765.00;;;;4934607;28;116572;-68
2023/04/25 08:24:08;;;;;;;2.70;1.30;;;14.50;74.90;14.70;99762.00;;;;4932507;28;87798;-67
2023/04/25 08:26:34;;;;;;;4.85;1.48;;;14.70;73.40;14.70;99758.00;;;;4932720;28;107676;-67
2023/04/25 08:29:00;;;;;;;3.13;1.30;;;14.70;73.30;14.80;99764.00;;;;4933735;28;89924;-68
2023/04/25 08:31:25;;;;;;;1.20;0.82;;;14.80;72.50;14.80;99773.00;;;;4933412;28;116488;-67
2023/04/25 08:33:51;;;;;;;1.42;1.00;;;14.80;70.90;14.80;99780.00;;;;4932929;28;110208;-69
2023/04/25 08:36:18;;;;;;;3.08;1.25;;;14.80;72.30;14.80;99778.00;;;;4936208;28;88322;-67
2023/04/25 08:38:44;;;;;;;1.05;0.80;;;14.90;70.10;14.60;99789.00;;;;4937472;28;87835;-67
2023/04/25 08:41:12;;;;;;;1.40;1.30;;;14.70;70.90;14.50;99782.00;;;;4930361;28;87683;-67
2023/04/25 08:43:37;;;;;;;1.75;1.30;;;14.60;71.80;14.30;99791.00;;;;4929891;28;88190;-67
2023/04/25 08:46:03;;;;;;;2.35;1.52;;;14.40;71.70;14.10;99787.00;;;;4932990;28;109069;-68
2023/04/25 08:48:33;;;;;;;6.80;1.55;;;14.30;71.60;14.00;99783.00;;;;4931130;28;118618;-68
2023/04/25 08:51:01;;;;;;;0.87;0.77;;;14.10;71.80;13.90;99788.00;;;;4932661;28;88924;-67
2023/04/25 08:53:32;;;;;;;2.50;1.43;;;13.90;73.00;13.80;99798.00;;;;4934351;28;89171;-68
2023/04/25 08:56:01;;;;;;;1.00;0.83;;;13.90;73.10;13.70;99797.00;;;;4932167;28;87761;-68
2023/04/25 08:58:28;;;;;;;2.00;1.23;;;13.70;73.30;13.40;99800.00;;;;4934717;28;88192;-68
2023/04/25 09:00:53;;;;;;;3.37;1.20;;;13.50;73.80;13.20;99798.00;;;;4937552;28;108133;-67
2023/04/25 09:03:19;;;;;;;3.30;1.07;;;13.30;74.40;13.00;99798.00;;;;4930763;28;110671;-68
2023/04/25 09:05:45;;;;;;;1.50;1.03;;;13.10;75.30;12.90;99806.00;;;;4929361;28;106908;-67
2023/04/25 09:08:11;;;;;;;1.30;1.00;;;12.90;75.80;12.60;99809.00;;;;4931051;28;88823;-67
2023/04/25 09:10:37;;;;;;;2.00;0.90;;;12.80;76.70;12.50;99818.00;;;;4932570;28;106851;-69
2023/04/25 09:13:10;;;;;;;0.83;0.80;;;12.60;77.30;12.40;99820.00;;;;4933770;28;87757;-69
2023/04/25 09:15:49;;;;;;;1.37;1.27;;;12.50;77.90;12.30;99821.00;;;;4930809;28;87815;-69
2023/04/25 09:18:29;;;;;;;1.83;1.67;;;12.30;79.50;12.20;99824.00;;;;4935147;28;89017;-69
2023/04/25 09:20:57;;;;;;;1.10;1.00;;;12.30;79.70;12.20;99825.00;;;;4920692;28;89296;-70
2023/04/25 09:23:23;;;;;;;8.07;1.83;;;12.20;80.00;12.20;99826.00;;;;4934483;28;93591;-69
2023/04/25 09:25:51;;;;;;;1.63;0.80;;;12.20;80.60;12.30;99829.00;;;;4934563;28;88116;-69
2023/04/25 09:28:24;;;;;;;3.63;1.57;;;12.20;81.20;12.30;99834.00;;;;4934965;28;110276;-70
2023/04/25 09:30:54;;;;;;;3.43;1.57;;;12.30;81.60;12.30;99834.00;;;;4932414;28;87992;-69
2023/04/25 09:33:20;;;;;;;1.43;1.27;;;12.30;81.60;12.30;99834.00;;;;4934558;28;88433;-69
2023/04/25 09:35:46;;;;;;;1.90;1.27;;;12.30;81.80;12.30;99839.00;;;;4936681;28;87158;-69
2023/04/25 09:38:14;;;;;;;3.50;1.50;;;12.30;82.10;12.30;99835.00;;;;4935368;28;88409;-69
2023/04/25 09:40:46;;;;;;;1.00;0.70;;;12.30;82.50;12.40;99834.00;;;;4932462;28;88845;-69
2023/04/25 09:43:25;;;;;;;4.20;1.10;;;12.30;82.50;12.40;99843.00;;;;4929325;28;88652;-69
2023/04/25 09:45:59;;;;;;;2.40;1.10;;;12.40;82.50;12.50;99835.00;;;;4930321;28;87688;-69
2023/04/25 09:48:26;;;;;;;1.00;0.90;;;12.40;82.50;12.50;99848.00;;;;4916166;28;89799;-69
2023/04/25 09:51:13;;;;;;;1.40;1.13;;;12.40;82.50;12.40;99847.00;;;;4932938;28;94412;-69
2023/04/25 09:53:42;;;;;;;1.30;1.20;;;12.40;82.80;12.30;99846.00;;;;4934994;28;88084;-69
2023/04/25 09:56:10;;;;;;;1.97;0.80;;;12.40;83.20;12.30;99840.00;;;;4934349;28;88043;-69
2023/04/25 09:58:39;;;;;;;1.13;0.97;;;12.30;83.30;12.20;99850.00;;;;4929446;28;89023;-69
2023/04/25 10:01:08;;;;;;;4.67;1.13;;;12.30;83.60;12.20;99852.00;;;;4930455;28;88502;-70
2023/04/25 10:03:39;;;;;;;1.87;1.03;;;12.20;84.10;12.10;99853.00;;;;4932197;28;88004;-70
2023/04/25 10:06:10;;;;;;;2.83;1.60;;;12.10;85.00;12.00;99844.00;;;;4931435;28;87957;-67
2023/04/25 10:08:37;;;;;;;1.03;0.93;;;12.10;85.80;11.90;99846.00;;;;4934535;28;88995;-70
2023/04/25 10:11:07;;;;;;;3.23;1.20;;;12.00;86.10;11.90;99855.00;;;;4929960;28;88483;-69
2023/04/25 10:13:35;;;;;;;5.23;2.13;;;11.90;86.40;12.00;99848.00;;;;4931674;28;88678;-69
2023/04/25 10:16:04;;;;;;;2.50;1.13;;;12.00;86.90;12.10;99853.00;;;;4930968;28;87770;-69
2023/04/25 10:18:31;;;;;;;2.30;1.30;;;12.00;86.80;12.20;99842.00;;;;4944318;28;88886;-70
2023/04/25 10:21:03;;;;;;;1.50;1.20;;;12.10;86.70;12.20;99853.00;;;;4929717;28;87821;-69
2023/04/25 10:23:31;;;;;;;1.40;1.30;;;12.20;86.30;12.20;99847.00;;;;4928688;28;89496;-68
2023/04/25 10:25:57;;;;;;;1.83;1.57;;;12.20;86.40;12.10;99858.00;;;;4932988;28;87144;-68
2023/04/25 10:28:23;;;;;;;1.03;1.03;;;12.10;86.50;12.10;99856.00;;;;4935932;28;89036;-69
2023/04/25 10:31:05;;;;;;;1.43;1.10;;;12.10;86.50;12.00;99863.00;;;;4937702;28;118017;-69
2023/04/25 10:33:36;;;;;;;0.80;0.80;;;12.00;86.50;11.90;99858.00;;;;4928296;28;88969;-69
2023/04/25 10:36:14;;;;;;;1.37;1.10;;;12.00;87.00;11.90;99867.00;;;;4936748;28;88163;-69
2023/04/25 10:38:43;;;;;;;1.87;1.57;;;12.00;87.80;11.80;99871.00;;;;4934921;28;88698;-69
2023/04/25 10:41:11;;;;;;;1.73;1.33;;;11.90;88.10;11.70;99868.00;;;;4931869;28;90708;-68
2023/04/25 10:43:45;;;;;;;1.83;1.63;;;11.80;88.70;11.60;99876.00;;;;4935880;28;88184;-70
2023/04/25 10:46:23;;;;;;;1.67;1.00;;;11.70;89.50;11.60;99877.00;;;;4938535;28;87694;-70
2023/04/25 10:48:54;;;;;;;3.37;1.67;;;11.60;90.20;11.60;99881.00;;;;4929335;28;99836;-68
2023/04/25 10:51:22;;;;;;;2.93;1.30;;;11.60;90.60;11.60;99877.00;;;;4932887;28;87868;-68
2023/04/25 10:54:03;;;;;;;1.50;1.40;;;11.50;90.80;11.50;99876.00;;;;4936870;28;88010;-69
2023/04/25 10:56:31;;;;;;;2.23;1.77;;;11.60;91.30;11.40;99882.00;;;;4936705;28;87709;-69
2023/04/25 10:59:12;;;;;;;0.90;0.90;;;11.50;91.80;11.30;99889.00;;;;4934590;28;90055;-69